Pagina principale
METAR-TAF:

METAR-TAF

Aeroporti :

Aeroporto di Oslo-Gardermoen

Oslo, Norvegia

latitudine: 60-12N, longitudine: 011-05E, altezza: 208 m

Osservazione

Il bollettino è stato emesso 29 minuti fa, alle 00:20 UTC
Vento 2 kt da direzioni variabili
Temperature 2°C
Umidità 93%
Pressione 1018 hPa
Visibilità 10 km o più
nessuna nube inferiore a 1500 m e nessun cumulonembo

METAR: ENGM 200020Z VRB02KT CAVOK 02/01 Q1018

Ora: 02:49 (00:49 UTC)

Previsione

Previsione valida dal 20 alle 00 UTC al 20 alle 24 UTC
Vento 5 kt da direzioni variabili
Visibilità 10 km o più
Poco nuvoloso ad un'altezza di 4000 ft
Nuvoloso ad un'altezza di 12000 ft
Probabilità 40%
dal 20 alle 02 UTC al 20 alle 08 UTC
Visibilità: 0500 m
ad un'altezza di 100 ft
nebbia

TAF: ENGM 2000/2024 VRB05KT 9999 FEW040 BKN120 PROB40 2002/2008 0500 FG VV001

Osservazioni e previsioni meteorologiche di più di 4000 aeroporti (messaggi METAR e TAF).

Le stazioni disponibili sono rappresentate dai dischi gialli e rossi sulla carta.

Puntare il mouse per vedere il nome della stazione.

Clicca sopra per visualizzare le osservazioni e previsioni meteorologiche.

Per cambiare la mappa : fare clic sui pulsanti verdi con una croce nera per ingrandire, il pulsante verde con un trattino per diminuire, o sulla freccia verde per le mappe adiacenti.


METAR-TAF: